sensor_id;sensor_type;location;lat;lon;timestamp;pressure;altitude;pressure_sealevel;temperature;humidity
26657;BME280;14279;50.010;8.260;2024-01-06T00:01:50;99256.63;;;6.01;78.65
26657;BME280;14279;50.010;8.260;2024-01-06T00:04:15;99257.28;;;6.07;79.16
26657;BME280;14279;50.010;8.260;2024-01-06T00:06:41;99261.09;;;6.17;78.65
26657;BME280;14279;50.010;8.260;2024-01-06T00:09:06;99261.72;;;6.22;78.51
26657;BME280;14279;50.010;8.260;2024-01-06T00:11:32;99256.00;;;6.15;78.64
26657;BME280;14279;50.010;8.260;2024-01-06T00:13:57;99251.38;;;6.03;78.88
26657;BME280;14279;50.010;8.260;2024-01-06T00:16:22;99262.84;;;6.16;78.74
26657;BME280;14279;50.010;8.260;2024-01-06T00:18:48;99263.69;;;6.17;78.45
26657;BME280;14279;50.010;8.260;2024-01-06T00:21:13;99264.31;;;6.22;78.71
26657;BME280;14279;50.010;8.260;2024-01-06T00:23:42;99272.72;;;6.27;79.26
26657;BME280;14279;50.010;8.260;2024-01-06T00:26:09;99269.28;;;6.08;81.06
26657;BME280;14279;50.010;8.260;2024-01-06T00:28:34;99269.75;;;6.16;81.23
26657;BME280;14279;50.010;8.260;2024-01-06T00:31:00;99267.13;;;6.37;80.42
26657;BME280;14279;50.010;8.260;2024-01-06T00:33:25;99259.91;;;6.43;80.23
26657;BME280;14279;50.010;8.260;2024-01-06T00:35:50;99265.84;;;6.45;79.19
26657;BME280;14279;50.010;8.260;2024-01-06T00:38:16;99259.81;;;6.45;79.13
26657;BME280;14279;50.010;8.260;2024-01-06T00:40:41;99263.88;;;6.51;79.27
26657;BME280;14279;50.010;8.260;2024-01-06T00:43:06;99262.81;;;6.55;78.99
26657;BME280;14279;50.010;8.260;2024-01-06T00:45:31;99269.53;;;6.59;78.90
26657;BME280;14279;50.010;8.260;2024-01-06T00:47:57;99263.44;;;6.60;78.71
26657;BME280;14279;50.010;8.260;2024-01-06T00:50:23;99263.53;;;6.58;78.66
26657;BME280;14279;50.010;8.260;2024-01-06T00:52:48;99262.41;;;6.64;78.08
26657;BME280;14279;50.010;8.260;2024-01-06T00:55:18;99267.53;;;6.46;77.16
26657;BME280;14279;50.010;8.260;2024-01-06T00:57:43;99272.84;;;6.43;76.77
26657;BME280;14279;50.010;8.260;2024-01-06T01:00:08;99270.81;;;6.31;76.94
26657;BME280;14279;50.010;8.260;2024-01-06T01:02:34;99278.97;;;6.41;76.40
26657;BME280;14279;50.010;8.260;2024-01-06T01:04:59;99282.56;;;6.38;76.50
26657;BME280;14279;50.010;8.260;2024-01-06T01:07:24;99284.00;;;6.44;76.51
26657;BME280;14279;50.010;8.260;2024-01-06T01:09:50;99292.25;;;6.33;78.80
26657;BME280;14279;50.010;8.260;2024-01-06T01:12:15;99291.00;;;6.23;79.43
26657;BME280;14279;50.010;8.260;2024-01-06T01:14:40;99292.84;;;6.21;79.94
26657;BME280;14279;50.010;8.260;2024-01-06T01:17:06;99295.75;;;6.13;80.31
26657;BME280;14279;50.010;8.260;2024-01-06T01:19:31;99286.75;;;6.22;80.08
26657;BME280;14279;50.010;8.260;2024-01-06T01:21:56;99293.16;;;6.32;79.51
26657;BME280;14279;50.010;8.260;2024-01-06T01:24:22;99294.72;;;6.36;79.64
26657;BME280;14279;50.010;8.260;2024-01-06T01:26:48;99289.63;;;6.35;79.69
26657;BME280;14279;50.010;8.260;2024-01-06T01:29:13;99302.66;;;6.51;78.94
26657;BME280;14279;50.010;8.260;2024-01-06T01:31:38;99305.41;;;6.47;78.86
26657;BME280;14279;50.010;8.260;2024-01-06T01:34:03;99300.06;;;6.51;78.58
26657;BME280;14279;50.010;8.260;2024-01-06T01:36:29;99296.25;;;6.40;79.44
26657;BME280;14279;50.010;8.260;2024-01-06T01:38:54;99305.53;;;6.44;79.39
26657;BME280;14279;50.010;8.260;2024-01-06T01:41:19;99314.34;;;6.40;79.64
26657;BME280;14279;50.010;8.260;2024-01-06T01:43:45;99308.91;;;6.46;80.18
26657;BME280;14279;50.010;8.260;2024-01-06T01:46:11;99314.19;;;6.43;80.31
26657;BME280;14279;50.010;8.260;2024-01-06T01:48:36;99312.38;;;6.45;80.56
26657;BME280;14279;50.010;8.260;2024-01-06T01:51:02;99321.38;;;6.56;80.22
26657;BME280;14279;50.010;8.260;2024-01-06T01:53:27;99317.06;;;6.37;80.83
26657;BME280;14279;50.010;8.260;2024-01-06T01:55:53;99321.53;;;6.34;80.84
26657;BME280;14279;50.010;8.260;2024-01-06T01:58:19;99320.34;;;6.41;81.08
26657;BME280;14279;50.010;8.260;2024-01-06T02:00:44;99321.88;;;6.45;80.57
26657;BME280;14279;50.010;8.260;2024-01-06T02:03:11;99328.44;;;6.52;80.62
26657;BME280;14279;50.010;8.260;2024-01-06T02:05:38;99330.81;;;6.57;80.66
26657;BME280;14279;50.010;8.260;2024-01-06T02:08:03;99324.69;;;6.59;80.22
26657;BME280;14279;50.010;8.260;2024-01-06T02:10:28;99322.09;;;6.59;80.02
26657;BME280;14279;50.010;8.260;2024-01-06T02:12:54;99313.84;;;6.13;79.96
26657;BME280;14279;50.010;8.260;2024-01-06T02:15:19;99308.88;;;6.08;79.34
26657;BME280;14279;50.010;8.260;2024-01-06T02:17:44;99311.09;;;6.16;79.29
26657;BME280;14279;50.010;8.260;2024-01-06T02:20:11;99316.00;;;6.22;79.29
26657;BME280;14279;50.010;8.260;2024-01-06T02:22:36;99323.09;;;6.38;78.31
26657;BME280;14279;50.010;8.260;2024-01-06T02:25:05;99322.22;;;6.37;78.93
26657;BME280;14279;50.010;8.260;2024-01-06T02:27:37;99333.06;;;6.26;79.52
26657;BME280;14279;50.010;8.260;2024-01-06T02:30:02;99327.72;;;6.10;79.61
26657;BME280;14279;50.010;8.260;2024-01-06T02:32:27;99331.72;;;6.18;79.23
26657;BME280;14279;50.010;8.260;2024-01-06T02:34:53;99337.72;;;6.18;79.33
26657;BME280;14279;50.010;8.260;2024-01-06T02:37:18;99338.13;;;6.28;79.70
26657;BME280;14279;50.010;8.260;2024-01-06T02:39:43;99353.03;;;6.23;79.76
26657;BME280;14279;50.010;8.260;2024-01-06T02:42:09;99351.63;;;5.95;80.62
26657;BME280;14279;50.010;8.260;2024-01-06T02:44:34;99346.06;;;6.04;80.83
26657;BME280;14279;50.010;8.260;2024-01-06T02:47:00;99354.59;;;6.06;80.59
26657;BME280;14279;50.010;8.260;2024-01-06T02:49:25;99348.41;;;6.10;80.23
26657;BME280;14279;50.010;8.260;2024-01-06T02:51:50;99347.97;;;6.00;80.48
26657;BME280;14279;50.010;8.260;2024-01-06T02:54:16;99343.50;;;6.04;80.38
26657;BME280;14279;50.010;8.260;2024-01-06T02:56:41;99332.06;;;6.10;79.41
26657;BME280;14279;50.010;8.260;2024-01-06T02:59:06;99336.53;;;6.25;78.97
26657;BME280;14279;50.010;8.260;2024-01-06T03:01:32;99345.75;;;6.12;79.50
26657;BME280;14279;50.010;8.260;2024-01-06T03:03:57;99352.91;;;5.84;79.87
26657;BME280;14279;50.010;8.260;2024-01-06T03:06:22;99357.50;;;5.98;79.24
26657;BME280;14279;50.010;8.260;2024-01-06T03:08:48;99360.34;;;5.92;80.09
26657;BME280;14279;50.010;8.260;2024-01-06T03:11:13;99360.97;;;5.97;80.01
26657;BME280;14279;50.010;8.260;2024-01-06T03:13:38;99360.06;;;5.98;79.88
26657;BME280;14279;50.010;8.260;2024-01-06T03:16:04;99360.50;;;6.10;79.60
26657;BME280;14279;50.010;8.260;2024-01-06T03:18:30;99363.56;;;6.18;79.36
26657;BME280;14279;50.010;8.260;2024-01-06T03:20:55;99357.13;;;6.27;78.40
26657;BME280;14279;50.010;8.260;2024-01-06T03:23:21;99363.50;;;6.20;78.48
26657;BME280;14279;50.010;8.260;2024-01-06T03:25:46;99368.97;;;6.32;78.77
26657;BME280;14279;50.010;8.260;2024-01-06T03:28:11;99355.28;;;6.30;79.03
26657;BME280;14279;50.010;8.260;2024-01-06T03:30:36;99368.00;;;6.35;78.85
26657;BME280;14279;50.010;8.260;2024-01-06T03:33:02;99357.31;;;6.43;78.42
26657;BME280;14279;50.010;8.260;2024-01-06T03:35:27;99361.69;;;6.41;78.36
26657;BME280;14279;50.010;8.260;2024-01-06T03:37:52;99359.47;;;6.33;79.13
26657;BME280;14279;50.010;8.260;2024-01-06T03:40:18;99368.63;;;6.40;79.16
26657;BME280;14279;50.010;8.260;2024-01-06T03:42:43;99365.19;;;6.40;78.75
26657;BME280;14279;50.010;8.260;2024-01-06T03:45:08;99372.47;;;6.51;78.47
26657;BME280;14279;50.010;8.260;2024-01-06T03:47:34;99372.00;;;6.42;77.33
26657;BME280;14279;50.010;8.260;2024-01-06T03:49:59;99381.06;;;6.51;77.50
26657;BME280;14279;50.010;8.260;2024-01-06T03:52:25;99377.50;;;6.54;77.72
26657;BME280;14279;50.010;8.260;2024-01-06T03:54:51;99387.91;;;6.52;77.52
26657;BME280;14279;50.010;8.260;2024-01-06T03:57:16;99383.53;;;6.54;76.98
26657;BME280;14279;50.010;8.260;2024-01-06T03:59:42;99386.16;;;6.53;77.81
26657;BME280;14279;50.010;8.260;2024-01-06T04:02:07;99393.22;;;6.49;77.95
26657;BME280;14279;50.010;8.260;2024-01-06T04:04:32;99395.47;;;6.57;77.58
26657;BME280;14279;50.010;8.260;2024-01-06T04:06:58;99392.88;;;6.57;77.55
26657;BME280;14279;50.010;8.260;2024-01-06T04:09:23;99390.03;;;6.63;77.00
26657;BME280;14279;50.010;8.260;2024-01-06T04:11:48;99384.84;;;6.63;77.04
26657;BME280;14279;50.010;8.260;2024-01-06T04:14:13;99384.97;;;6.60;77.10
26657;BME280;14279;50.010;8.260;2024-01-06T04:16:39;99391.69;;;6.64;76.59
26657;BME280;14279;50.010;8.260;2024-01-06T04:19:04;99399.09;;;6.72;75.90
26657;BME280;14279;50.010;8.260;2024-01-06T04:21:32;99387.75;;;6.74;76.01
26657;BME280;14279;50.010;8.260;2024-01-06T04:23:57;99391.69;;;6.64;75.87
26657;BME280;14279;50.010;8.260;2024-01-06T04:26:23;99386.88;;;6.56;76.24
26657;BME280;14279;50.010;8.260;2024-01-06T04:28:49;99398.69;;;6.62;76.63
26657;BME280;14279;50.010;8.260;2024-01-06T04:31:14;99404.44;;;6.50;76.70
26657;BME280;14279;50.010;8.260;2024-01-06T04:33:39;99397.06;;;6.40;77.23
26657;BME280;14279;50.010;8.260;2024-01-06T04:36:06;99399.91;;;6.34;77.12
26657;BME280;14279;50.010;8.260;2024-01-06T04:38:31;99395.03;;;6.47;76.93
26657;BME280;14279;50.010;8.260;2024-01-06T04:40:57;99387.28;;;6.47;77.13
26657;BME280;14279;50.010;8.260;2024-01-06T04:43:22;99385.69;;;6.44;76.84
26657;BME280;14279;50.010;8.260;2024-01-06T04:45:47;99381.28;;;6.46;76.89
26657;BME280;14279;50.010;8.260;2024-01-06T04:48:13;99377.78;;;6.47;77.22
26657;BME280;14279;50.010;8.260;2024-01-06T04:50:38;99370.09;;;6.46;77.62
26657;BME280;14279;50.010;8.260;2024-01-06T04:53:03;99367.72;;;6.41;77.53
26657;BME280;14279;50.010;8.260;2024-01-06T04:55:28;99379.66;;;6.44;77.83
26657;BME280;14279;50.010;8.260;2024-01-06T04:57:54;99384.66;;;6.49;77.65
26657;BME280;14279;50.010;8.260;2024-01-06T05:00:19;99383.78;;;6.48;77.63
26657;BME280;14279;50.010;8.260;2024-01-06T05:02:44;99386.31;;;6.50;77.69
26657;BME280;14279;50.010;8.260;2024-01-06T05:05:10;99392.25;;;6.52;77.80
26657;BME280;14279;50.010;8.260;2024-01-06T05:07:35;99396.88;;;6.64;77.58
26657;BME280;14279;50.010;8.260;2024-01-06T05:10:00;99399.78;;;6.75;76.46
26657;BME280;14279;50.010;8.260;2024-01-06T05:12:26;99408.75;;;6.68;76.49
26657;BME280;14279;50.010;8.260;2024-01-06T05:14:51;99406.44;;;6.81;76.42
26657;BME280;14279;50.010;8.260;2024-01-06T05:17:16;99405.69;;;6.79;76.59
26657;BME280;14279;50.010;8.260;2024-01-06T05:19:41;99409.59;;;6.88;76.51
26657;BME280;14279;50.010;8.260;2024-01-06T05:22:07;99407.00;;;6.88;76.30
26657;BME280;14279;50.010;8.260;2024-01-06T05:24:32;99408.69;;;6.89;76.73
26657;BME280;14279;50.010;8.260;2024-01-06T05:26:57;99413.91;;;6.87;76.49
26657;BME280;14279;50.010;8.260;2024-01-06T05:29:23;99411.31;;;6.87;76.49
26657;BME280;14279;50.010;8.260;2024-01-06T05:31:50;99407.06;;;6.86;76.65
26657;BME280;14279;50.010;8.260;2024-01-06T05:34:16;99408.03;;;6.65;77.90
26657;BME280;14279;50.010;8.260;2024-01-06T05:36:41;99406.06;;;6.31;79.93
26657;BME280;14279;50.010;8.260;2024-01-06T05:39:06;99406.22;;;6.47;79.52
26657;BME280;14279;50.010;8.260;2024-01-06T05:41:37;99410.69;;;6.44;80.60
26657;BME280;14279;50.010;8.260;2024-01-06T05:44:03;99412.22;;;6.48;80.61
26657;BME280;14279;50.010;8.260;2024-01-06T05:46:28;99412.88;;;6.53;80.25
26657;BME280;14279;50.010;8.260;2024-01-06T05:48:53;99413.78;;;6.52;80.78
26657;BME280;14279;50.010;8.260;2024-01-06T05:51:21;99423.84;;;6.58;80.66
26657;BME280;14279;50.010;8.260;2024-01-06T05:53:46;99428.91;;;6.61;80.53
26657;BME280;14279;50.010;8.260;2024-01-06T05:56:11;99429.84;;;6.59;80.59
26657;BME280;14279;50.010;8.260;2024-01-06T05:58:36;99426.66;;;6.73;80.21
26657;BME280;14279;50.010;8.260;2024-01-06T06:01:02;99430.09;;;6.73;80.15
26657;BME280;14279;50.010;8.260;2024-01-06T06:03:27;99429.78;;;6.80;79.82
26657;BME280;14279;50.010;8.260;2024-01-06T06:05:53;99435.72;;;6.82;79.30
26657;BME280;14279;50.010;8.260;2024-01-06T06:08:18;99440.63;;;6.69;79.21
26657;BME280;14279;50.010;8.260;2024-01-06T06:10:44;99438.38;;;6.61;79.33
26657;BME280;14279;50.010;8.260;2024-01-06T06:13:26;99430.84;;;6.56;79.65
26657;BME280;14279;50.010;8.260;2024-01-06T06:15:51;99439.50;;;6.55;80.00
26657;BME280;14279;50.010;8.260;2024-01-06T06:18:17;99445.56;;;6.54;80.17
26657;BME280;14279;50.010;8.260;2024-01-06T06:20:42;99447.75;;;6.64;79.85
26657;BME280;14279;50.010;8.260;2024-01-06T06:23:09;99440.84;;;6.64;79.56
26657;BME280;14279;50.010;8.260;2024-01-06T06:25:34;99447.00;;;6.61;79.58
26657;BME280;14279;50.010;8.260;2024-01-06T06:27:59;99458.03;;;6.65;79.37
26657;BME280;14279;50.010;8.260;2024-01-06T06:30:25;99453.69;;;6.66;79.37
26657;BME280;14279;50.010;8.260;2024-01-06T06:32:51;99462.44;;;6.63;79.46
26657;BME280;14279;50.010;8.260;2024-01-06T06:35:16;99457.19;;;6.65;79.86
26657;BME280;14279;50.010;8.260;2024-01-06T06:37:41;99462.56;;;6.60;79.99
26657;BME280;14279;50.010;8.260;2024-01-06T06:40:07;99459.28;;;6.56;79.96
26657;BME280;14279;50.010;8.260;2024-01-06T06:42:32;99470.59;;;6.54;80.24
26657;BME280;14279;50.010;8.260;2024-01-06T06:44:57;99476.47;;;6.57;80.82
26657;BME280;14279;50.010;8.260;2024-01-06T06:47:23;99474.66;;;6.59;80.56
26657;BME280;14279;50.010;8.260;2024-01-06T06:49:48;99483.56;;;6.73;79.78
26657;BME280;14279;50.010;8.260;2024-01-06T06:52:13;99486.53;;;6.64;78.58
26657;BME280;14279;50.010;8.260;2024-01-06T06:54:39;99491.09;;;6.58;78.60
26657;BME280;14279;50.010;8.260;2024-01-06T06:57:04;99500.84;;;6.72;79.01
26657;BME280;14279;50.010;8.260;2024-01-06T06:59:29;99500.19;;;6.86;78.44
26657;BME280;14279;50.010;8.260;2024-01-06T07:01:55;99497.19;;;6.96;77.69
26657;BME280;14279;50.010;8.260;2024-01-06T07:04:20;99497.34;;;7.12;77.71
26657;BME280;14279;50.010;8.260;2024-01-06T07:06:45;99506.66;;;6.97;77.48
26657;BME280;14279;50.010;8.260;2024-01-06T07:09:10;99502.03;;;6.84;78.34
26657;BME280;14279;50.010;8.260;2024-01-06T07:11:36;99505.22;;;6.70;79.55
26657;BME280;14279;50.010;8.260;2024-01-06T07:14:01;99502.00;;;6.65;79.29
26657;BME280;14279;50.010;8.260;2024-01-06T07:16:26;99505.41;;;6.66;79.49
26657;BME280;14279;50.010;8.260;2024-01-06T07:18:51;99515.09;;;6.81;78.27
26657;BME280;14279;50.010;8.260;2024-01-06T07:21:17;99519.38;;;6.82;78.66
26657;BME280;14279;50.010;8.260;2024-01-06T07:23:42;99518.03;;;6.73;79.30
26657;BME280;14279;50.010;8.260;2024-01-06T07:26:07;99521.63;;;6.90;79.23
26657;BME280;14279;50.010;8.260;2024-01-06T07:28:33;99525.75;;;7.13;77.90
26657;BME280;14279;50.010;8.260;2024-01-06T07:31:00;99523.66;;;7.21;77.75
26657;BME280;14279;50.010;8.260;2024-01-06T07:33:25;99528.34;;;7.32;76.86
26657;BME280;14279;50.010;8.260;2024-01-06T07:35:51;99528.69;;;7.44;76.53
26657;BME280;14279;50.010;8.260;2024-01-06T07:38:16;99523.09;;;7.34;76.97
26657;BME280;14279;50.010;8.260;2024-01-06T07:40:41;99537.63;;;7.17;77.24
26657;BME280;14279;50.010;8.260;2024-01-06T07:43:09;99533.78;;;7.26;77.61
26657;BME280;14279;50.010;8.260;2024-01-06T07:45:34;99537.88;;;7.32;76.93
26657;BME280;14279;50.010;8.260;2024-01-06T07:47:59;99547.22;;;7.15;77.28
26657;BME280;14279;50.010;8.260;2024-01-06T07:50:25;99551.00;;;7.08;78.16
26657;BME280;14279;50.010;8.260;2024-01-06T07:52:50;99553.53;;;7.10;78.06
26657;BME280;14279;50.010;8.260;2024-01-06T07:55:17;99556.50;;;7.00;78.49
26657;BME280;14279;50.010;8.260;2024-01-06T07:57:42;99567.78;;;7.18;78.21
26657;BME280;14279;50.010;8.260;2024-01-06T08:00:08;99574.09;;;7.13;78.14
26657;BME280;14279;50.010;8.260;2024-01-06T08:02:33;99577.88;;;7.25;78.18
26657;BME280;14279;50.010;8.260;2024-01-06T08:04:58;99578.41;;;7.12;77.73
26657;BME280;14279;50.010;8.260;2024-01-06T08:07:24;99585.44;;;6.89;79.26
26657;BME280;14279;50.010;8.260;2024-01-06T08:09:49;99586.25;;;7.11;78.49
26657;BME280;14279;50.010;8.260;2024-01-06T08:12:15;99587.25;;;7.08;78.49
26657;BME280;14279;50.010;8.260;2024-01-06T08:14:40;99586.56;;;7.24;77.98
26657;BME280;14279;50.010;8.260;2024-01-06T08:17:06;99594.03;;;7.11;78.39
26657;BME280;14279;50.010;8.260;2024-01-06T08:19:31;99589.53;;;7.14;78.58
26657;BME280;14279;50.010;8.260;2024-01-06T08:21:58;99590.78;;;7.05;79.81
26657;BME280;14279;50.010;8.260;2024-01-06T08:24:23;99594.84;;;7.11;80.04
26657;BME280;14279;50.010;8.260;2024-01-06T08:26:49;99600.38;;;7.03;80.11
26657;BME280;14279;50.010;8.260;2024-01-06T08:29:15;99598.84;;;7.18;79.40
26657;BME280;14279;50.010;8.260;2024-01-06T08:31:41;99595.63;;;7.13;79.74
26657;BME280;14279;50.010;8.260;2024-01-06T08:34:06;99603.22;;;7.18;79.84
26657;BME280;14279;50.010;8.260;2024-01-06T08:36:33;99606.19;;;7.09;79.24
26657;BME280;14279;50.010;8.260;2024-01-06T08:38:59;99612.84;;;7.14;79.00
26657;BME280;14279;50.010;8.260;2024-01-06T08:41:24;99609.63;;;7.09;78.91
26657;BME280;14279;50.010;8.260;2024-01-06T08:43:49;99615.63;;;7.10;78.78
26657;BME280;14279;50.010;8.260;2024-01-06T08:46:14;99612.69;;;7.17;78.54
26657;BME280;14279;50.010;8.260;2024-01-06T08:48:40;99616.03;;;7.21;78.35
26657;BME280;14279;50.010;8.260;2024-01-06T08:51:05;99623.91;;;7.18;78.14
26657;BME280;14279;50.010;8.260;2024-01-06T08:53:31;99624.09;;;7.13;78.24
26657;BME280;14279;50.010;8.260;2024-01-06T08:55:56;99624.03;;;7.15;78.34
26657;BME280;14279;50.010;8.260;2024-01-06T08:58:21;99621.69;;;7.29;78.01
26657;BME280;14279;50.010;8.260;2024-01-06T09:00:47;99628.28;;;7.36;77.58
26657;BME280;14279;50.010;8.260;2024-01-06T09:03:12;99622.22;;;7.36;77.60
26657;BME280;14279;50.010;8.260;2024-01-06T09:05:38;99628.97;;;7.21;78.15
26657;BME280;14279;50.010;8.260;2024-01-06T09:08:03;99628.22;;;7.17;79.17
26657;BME280;14279;50.010;8.260;2024-01-06T09:10:29;99629.03;;;6.99;79.50
26657;BME280;14279;50.010;8.260;2024-01-06T09:12:54;99631.16;;;7.10;79.46
26657;BME280;14279;50.010;8.260;2024-01-06T09:15:20;99642.50;;;7.07;79.45
26657;BME280;14279;50.010;8.260;2024-01-06T09:17:45;99643.63;;;7.20;78.94
26657;BME280;14279;50.010;8.260;2024-01-06T09:20:11;99643.75;;;7.17;79.61
26657;BME280;14279;50.010;8.260;2024-01-06T09:22:36;99644.63;;;7.18;80.45
26657;BME280;14279;50.010;8.260;2024-01-06T09:25:01;99648.16;;;7.15;79.97
26657;BME280;14279;50.010;8.260;2024-01-06T09:27:26;99653.22;;;7.18;80.22
26657;BME280;14279;50.010;8.260;2024-01-06T09:29:52;99651.41;;;7.20;80.38
26657;BME280;14279;50.010;8.260;2024-01-06T09:32:17;99651.41;;;7.20;80.02
26657;BME280;14279;50.010;8.260;2024-01-06T09:34:42;99649.50;;;7.24;80.38
26657;BME280;14279;50.010;8.260;2024-01-06T09:37:08;99663.97;;;7.30;79.89
26657;BME280;14279;50.010;8.260;2024-01-06T09:39:33;99658.66;;;7.33;79.91
26657;BME280;14279;50.010;8.260;2024-01-06T09:41:58;99664.25;;;7.43;79.49
26657;BME280;14279;50.010;8.260;2024-01-06T09:44:24;99667.69;;;7.43;79.14
26657;BME280;14279;50.010;8.260;2024-01-06T09:46:49;99668.84;;;7.36;78.83
26657;BME280;14279;50.010;8.260;2024-01-06T09:49:21;99670.94;;;7.28;78.89
26657;BME280;14279;50.010;8.260;2024-01-06T09:51:49;99667.09;;;7.36;79.15
26657;BME280;14279;50.010;8.260;2024-01-06T09:54:23;99673.84;;;7.41;78.98
26657;BME280;14279;50.010;8.260;2024-01-06T09:56:51;99676.00;;;7.50;78.50
26657;BME280;14279;50.010;8.260;2024-01-06T09:59:16;99682.59;;;7.57;78.27
26657;BME280;14279;50.010;8.260;2024-01-06T10:01:44;99685.28;;;7.56;77.96
26657;BME280;14279;50.010;8.260;2024-01-06T10:04:10;99689.72;;;7.52;78.18
26657;BME280;14279;50.010;8.260;2024-01-06T10:06:35;99689.69;;;7.54;78.59
26657;BME280;14279;50.010;8.260;2024-01-06T10:09:01;99686.56;;;7.45;79.25
26657;BME280;14279;50.010;8.260;2024-01-06T10:11:27;99685.03;;;7.41;80.30
26657;BME280;14279;50.010;8.260;2024-01-06T10:13:52;99688.72;;;7.35;80.93
26657;BME280;14279;50.010;8.260;2024-01-06T10:16:19;99680.31;;;7.30;82.19
26657;BME280;14279;50.010;8.260;2024-01-06T10:18:45;99681.03;;;7.34;83.12
26657;BME280;14279;50.010;8.260;2024-01-06T10:21:10;99687.25;;;7.30;82.29
26657;BME280;14279;50.010;8.260;2024-01-06T10:23:36;99686.78;;;7.41;82.60
26657;BME280;14279;50.010;8.260;2024-01-06T10:26:02;99691.25;;;7.37;82.47
26657;BME280;14279;50.010;8.260;2024-01-06T10:28:29;99697.28;;;7.37;83.58
26657;BME280;14279;50.010;8.260;2024-01-06T10:30:55;99693.78;;;7.39;83.40
26657;BME280;14279;50.010;8.260;2024-01-06T10:33:25;99692.91;;;7.38;83.09
26657;BME280;14279;50.010;8.260;2024-01-06T10:35:52;99695.13;;;7.47;82.31
26657;BME280;14279;50.010;8.260;2024-01-06T10:38:17;99693.09;;;7.54;82.09
26657;BME280;14279;50.010;8.260;2024-01-06T10:40:58;99684.06;;;7.63;82.28
26657;BME280;14279;50.010;8.260;2024-01-06T10:43:27;99689.47;;;7.58;82.45
26657;BME280;14279;50.010;8.260;2024-01-06T10:45:55;99687.66;;;7.60;82.30
26657;BME280;14279;50.010;8.260;2024-01-06T10:48:24;99687.28;;;7.49;82.92
26657;BME280;14279;50.010;8.260;2024-01-06T10:50:50;99692.66;;;7.44;83.35
26657;BME280;14279;50.010;8.260;2024-01-06T10:53:17;99693.03;;;7.56;83.67
26657;BME280;14279;50.010;8.260;2024-01-06T10:55:42;99683.47;;;7.58;82.55
26657;BME280;14279;50.010;8.260;2024-01-06T10:58:09;99688.63;;;7.58;82.58
26657;BME280;14279;50.010;8.260;2024-01-06T11:00:35;99683.72;;;7.71;82.44
26657;BME280;14279;50.010;8.260;2024-01-06T11:03:01;99685.41;;;7.72;82.26
26657;BME280;14279;50.010;8.260;2024-01-06T11:05:27;99684.00;;;7.83;81.50
26657;BME280;14279;50.010;8.260;2024-01-06T11:07:53;99676.22;;;8.03;80.82
26657;BME280;14279;50.010;8.260;2024-01-06T11:10:25;99675.03;;;8.10;80.10
26657;BME280;14279;50.010;8.260;2024-01-06T11:13:09;99676.75;;;8.28;79.10
26657;BME280;14279;50.010;8.260;2024-01-06T11:15:50;99672.47;;;8.27;79.18
26657;BME280;14279;50.010;8.260;2024-01-06T11:18:39;99670.25;;;8.20;79.51
26657;BME280;14279;50.010;8.260;2024-01-06T11:21:17;99677.94;;;8.21;78.50
26657;BME280;14279;50.010;8.260;2024-01-06T11:26:49;99673.75;;;8.19;79.00
26657;BME280;14279;50.010;8.260;2024-01-06T11:29:21;99671.41;;;8.14;79.81
26657;BME280;14279;50.010;8.260;2024-01-06T11:35:06;99674.91;;;8.13;79.06
26657;BME280;14279;50.010;8.260;2024-01-06T11:37:51;99675.94;;;8.28;78.80
26657;BME280;14279;50.010;8.260;2024-01-06T11:43:08;99668.56;;;8.19;79.40
26657;BME280;14279;50.010;8.260;2024-01-06T11:45:47;99670.75;;;8.28;79.45
26657;BME280;14279;50.010;8.260;2024-01-06T11:48:13;99668.06;;;8.30;79.17
26657;BME280;14279;50.010;8.260;2024-01-06T11:50:39;99665.84;;;8.22;79.22
26657;BME280;14279;50.010;8.260;2024-01-06T11:53:05;99663.25;;;8.22;79.36
26657;BME280;14279;50.010;8.260;2024-01-06T11:55:32;99658.75;;;8.25;79.71
26657;BME280;14279;50.010;8.260;2024-01-06T11:57:59;99655.19;;;8.28;79.89
26657;BME280;14279;50.010;8.260;2024-01-06T12:00:33;99657.97;;;8.23;80.11
26657;BME280;14279;50.010;8.260;2024-01-06T12:03:00;99660.50;;;8.25;79.87
26657;BME280;14279;50.010;8.260;2024-01-06T12:05:26;99656.63;;;8.16;80.33
26657;BME280;14279;50.010;8.260;2024-01-06T12:07:54;99659.81;;;8.21;80.78
26657;BME280;14279;50.010;8.260;2024-01-06T12:10:20;99663.72;;;8.30;81.04
26657;BME280;14279;50.010;8.260;2024-01-06T12:13:01;99658.88;;;8.22;80.81
26657;BME280;14279;50.010;8.260;2024-01-06T12:15:29;99661.16;;;8.11;82.69
26657;BME280;14279;50.010;8.260;2024-01-06T12:17:54;99650.25;;;8.04;83.31
26657;BME280;14279;50.010;8.260;2024-01-06T12:20:21;99661.94;;;7.94;84.26
26657;BME280;14279;50.010;8.260;2024-01-06T12:22:47;99664.25;;;8.00;84.29
26657;BME280;14279;50.010;8.260;2024-01-06T12:25:14;99670.44;;;7.78;84.97
26657;BME280;14279;50.010;8.260;2024-01-06T12:27:44;99663.84;;;7.90;86.04
26657;BME280;14279;50.010;8.260;2024-01-06T12:30:14;99662.59;;;7.80;86.62
26657;BME280;14279;50.010;8.260;2024-01-06T12:32:42;99660.75;;;7.82;86.49
26657;BME280;14279;50.010;8.260;2024-01-06T12:35:09;99662.53;;;7.81;87.00
26657;BME280;14279;50.010;8.260;2024-01-06T12:37:35;99657.94;;;7.87;86.76
26657;BME280;14279;50.010;8.260;2024-01-06T12:40:01;99660.03;;;7.97;87.20
26657;BME280;14279;50.010;8.260;2024-01-06T12:42:26;99652.91;;;8.03;87.25
26657;BME280;14279;50.010;8.260;2024-01-06T12:44:52;99653.81;;;8.02;87.33
26657;BME280;14279;50.010;8.260;2024-01-06T12:47:18;99659.72;;;8.05;87.85
26657;BME280;14279;50.010;8.260;2024-01-06T12:49:44;99657.94;;;8.06;87.02
26657;BME280;14279;50.010;8.260;2024-01-06T12:52:09;99670.22;;;8.02;87.20
26657;BME280;14279;50.010;8.260;2024-01-06T12:54:35;99662.34;;;8.04;87.95
26657;BME280;14279;50.010;8.260;2024-01-06T12:57:00;99668.22;;;8.07;90.12
26657;BME280;14279;50.010;8.260;2024-01-06T12:59:25;99672.81;;;8.02;89.36
26657;BME280;14279;50.010;8.260;2024-01-06T13:01:51;99672.03;;;8.00;89.42
26657;BME280;14279;50.010;8.260;2024-01-06T13:04:17;99677.28;;;7.98;89.27
26657;BME280;14279;50.010;8.260;2024-01-06T13:06:42;99668.94;;;7.92;89.76
26657;BME280;14279;50.010;8.260;2024-01-06T13:09:08;99683.31;;;7.80;93.00
26657;BME280;14279;50.010;8.260;2024-01-06T13:11:35;99681.28;;;7.67;94.32
26657;BME280;14279;50.010;8.260;2024-01-06T13:14:01;99693.03;;;7.56;93.36